createdAt,value
2022-07-27T00:01:20.394Z,51.72
2022-07-27T00:03:48.780Z,51.72
2022-07-27T00:06:16.614Z,51.70
2022-07-27T00:08:44.549Z,51.55
2022-07-27T00:11:13.463Z,51.79
2022-07-27T00:13:41.866Z,52.02
2022-07-27T00:16:09.818Z,51.74
2022-07-27T00:18:37.566Z,51.46
2022-07-27T00:21:05.259Z,50.87
2022-07-27T00:23:32.993Z,51.16
2022-07-27T00:26:00.648Z,51.27
2022-07-27T00:28:28.311Z,51.13
2022-07-27T00:30:56.682Z,51.01
2022-07-27T00:33:24.450Z,50.92
2022-07-27T00:35:52.133Z,50.71
2022-07-27T00:38:20.191Z,50.94
2022-07-27T00:40:47.891Z,50.61
2022-07-27T00:43:16.327Z,50.60
2022-07-27T00:45:44.007Z,50.51
2022-07-27T00:48:12.035Z,50.55
2022-07-27T00:50:43.450Z,50.83
2022-07-27T00:53:13.693Z,51.13
2022-07-27T00:55:41.924Z,51.29
2022-07-27T00:58:12.747Z,51.92
2022-07-27T01:00:40.912Z,51.92
2022-07-27T01:03:09.701Z,52.17
2022-07-27T01:05:42.906Z,52.61
2022-07-27T01:08:13.623Z,52.85
2022-07-27T01:10:42.861Z,52.74
2022-07-27T01:13:12.610Z,52.87
2022-07-27T01:15:41.935Z,53.03
2022-07-27T01:18:28.111Z,53.10
2022-07-27T01:20:56.459Z,53.29
2022-07-27T01:23:25.753Z,53.30
2022-07-27T01:25:53.827Z,53.54
2022-07-27T01:28:21.825Z,53.55
2022-07-27T01:30:49.708Z,53.70
2022-07-27T01:33:17.817Z,53.86
2022-07-27T01:35:45.471Z,54.11
2022-07-27T01:38:13.568Z,54.38
2022-07-27T01:40:41.355Z,54.23
2022-07-27T01:43:09.084Z,54.65
2022-07-27T01:45:36.795Z,54.73
2022-07-27T01:48:04.620Z,54.65
2022-07-27T01:50:32.507Z,54.60
2022-07-27T01:53:00.166Z,54.65
2022-07-27T01:55:27.842Z,54.74
2022-07-27T01:58:07.182Z,54.86
2022-07-27T02:00:35.880Z,54.76
2022-07-27T02:03:04.904Z,55.09
2022-07-27T02:05:32.829Z,55.36
2022-07-27T02:08:00.740Z,55.33
2022-07-27T02:10:28.481Z,55.42
2022-07-27T02:12:56.154Z,55.39
2022-07-27T02:15:26.757Z,55.48
2022-07-27T02:17:56.719Z,55.38
2022-07-27T02:20:26.070Z,55.42
2022-07-27T02:22:53.746Z,55.41
2022-07-27T02:25:21.729Z,55.23
2022-07-27T02:27:50.468Z,55.08
2022-07-27T02:30:18.157Z,55.00
2022-07-27T02:32:46.069Z,54.97
2022-07-27T02:35:19.558Z,54.99
2022-07-27T02:37:49.417Z,54.94
2022-07-27T02:40:18.489Z,54.75
2022-07-27T02:42:47.842Z,54.71
2022-07-27T02:45:16.951Z,54.42
2022-07-27T02:47:45.291Z,54.37
2022-07-27T02:50:13.384Z,54.24
2022-07-27T02:52:41.225Z,54.12
2022-07-27T02:55:09.800Z,54.01
2022-07-27T02:57:40.931Z,53.96
2022-07-27T03:00:14.799Z,53.96
2022-07-27T03:02:43.158Z,53.36
2022-07-27T03:05:11.897Z,53.34
2022-07-27T03:07:39.608Z,53.22
2022-07-27T03:10:08.167Z,52.91
2022-07-27T03:12:35.905Z,52.92
2022-07-27T03:15:03.648Z,52.93
2022-07-27T03:17:31.380Z,52.78
2022-07-27T03:19:59.024Z,52.82
2022-07-27T03:22:26.722Z,52.86
2022-07-27T03:24:54.377Z,52.93
2022-07-27T03:27:22.019Z,53.10
2022-07-27T03:29:49.650Z,53.45
2022-07-27T03:32:17.319Z,53.89
2022-07-27T03:34:44.983Z,53.68
2022-07-27T03:37:12.635Z,53.46
2022-07-27T03:39:40.322Z,53.37
2022-07-27T03:42:08.056Z,53.19
2022-07-27T03:44:35.712Z,53.19
2022-07-27T03:47:03.384Z,53.39
2022-07-27T03:49:31.195Z,53.62
2022-07-27T03:51:58.945Z,53.63
2022-07-27T03:54:26.698Z,53.89
2022-07-27T03:56:54.367Z,54.09
2022-07-27T03:59:22.199Z,54.30
2022-07-27T04:01:49.996Z,54.16
2022-07-27T04:04:17.690Z,54.00
2022-07-27T04:06:45.356Z,53.95
2022-07-27T04:09:13.848Z,54.20
2022-07-27T04:11:50.448Z,54.19
2022-07-27T04:14:19.093Z,54.09
2022-07-27T04:16:46.998Z,54.10
2022-07-27T04:19:15.124Z,54.54
2022-07-27T04:21:43.134Z,54.76
2022-07-27T04:24:10.891Z,55.02
2022-07-27T04:26:38.713Z,55.37
2022-07-27T04:29:06.452Z,55.52
2022-07-27T04:31:34.205Z,55.44
2022-07-27T04:34:01.974Z,55.38
2022-07-27T04:36:29.889Z,55.67
2022-07-27T04:39:00.026Z,56.00
2022-07-27T04:41:30.465Z,56.19
2022-07-27T04:44:00.169Z,56.34
2022-07-27T04:46:30.662Z,56.57
2022-07-27T04:48:59.046Z,56.85
2022-07-27T04:51:31.193Z,57.04
2022-07-27T04:54:01.885Z,57.49
2022-07-27T04:56:29.663Z,57.68
2022-07-27T04:58:57.413Z,58.06
2022-07-27T05:01:30.371Z,58.47
2022-07-27T05:04:01.035Z,59.00
2022-07-27T05:06:28.769Z,58.91
2022-07-27T05:08:56.457Z,59.22
2022-07-27T05:11:24.157Z,59.75
2022-07-27T05:13:52.035Z,60.02
2022-07-27T05:16:19.762Z,60.23
2022-07-27T05:18:47.456Z,59.92
2022-07-27T05:21:15.202Z,60.16
2022-07-27T05:23:43.103Z,59.62
2022-07-27T05:26:10.824Z,59.69
2022-07-27T05:28:38.564Z,59.35
2022-07-27T05:31:06.222Z,59.13
2022-07-27T05:33:34.107Z,58.90
2022-07-27T05:36:01.750Z,59.16
2022-07-27T05:38:29.612Z,58.73
2022-07-27T05:40:57.374Z,58.59
2022-07-27T05:43:25.084Z,58.94
2022-07-27T05:45:52.778Z,57.93
2022-07-27T05:48:20.510Z,58.03
2022-07-27T05:50:48.211Z,57.77
2022-07-27T05:53:15.960Z,57.88
2022-07-27T05:55:58.455Z,57.74
2022-07-27T05:58:30.983Z,57.47
2022-07-27T06:00:59.060Z,56.98
2022-07-27T06:03:27.365Z,57.14
2022-07-27T06:06:15.116Z,57.35
2022-07-27T06:08:42.793Z,56.97
2022-07-27T06:11:10.689Z,56.34
2022-07-27T06:13:42.496Z,56.49
2022-07-27T06:16:11.053Z,56.67
2022-07-27T06:18:38.972Z,56.16
2022-07-27T06:21:07.048Z,56.32
2022-07-27T06:23:34.835Z,56.26
2022-07-27T06:26:02.855Z,56.15
2022-07-27T06:28:30.507Z,56.18
2022-07-27T06:30:58.413Z,56.42
2022-07-27T06:33:30.092Z,56.24
2022-07-27T06:36:01.693Z,56.71
2022-07-27T06:38:30.261Z,56.87
2022-07-27T06:40:58.031Z,57.25
2022-07-27T06:43:31.715Z,57.93
2022-07-27T06:46:00.788Z,58.25
2022-07-27T06:48:28.552Z,57.89
2022-07-27T06:50:56.695Z,56.94
2022-07-27T06:53:24.408Z,57.07
2022-07-27T06:55:52.249Z,57.03
2022-07-27T06:58:20.543Z,56.78
2022-07-27T07:00:48.597Z,57.45
2022-07-27T07:03:16.598Z,57.78
2022-07-27T07:05:47.397Z,58.22
2022-07-27T07:08:15.785Z,57.79
2022-07-27T07:10:46.491Z,57.88
2022-07-27T07:13:14.368Z,57.80
2022-07-27T07:15:43.542Z,57.30
2022-07-27T07:18:12.799Z,57.09
2022-07-27T07:20:41.256Z,56.57
2022-07-27T07:23:09.251Z,56.74
2022-07-27T07:25:38.222Z,57.06
2022-07-27T07:28:06.921Z,55.99
2022-07-27T07:30:34.774Z,56.31
2022-07-27T07:33:03.646Z,55.95
2022-07-27T07:35:31.745Z,56.26
2022-07-27T07:37:59.576Z,56.17
2022-07-27T07:40:44.699Z,56.88
2022-07-27T07:43:14.363Z,56.72
2022-07-27T07:45:51.057Z,56.75
2022-07-27T07:48:21.370Z,56.19
2022-07-27T07:50:52.237Z,55.94
2022-07-27T07:53:22.467Z,55.75
2022-07-27T07:55:50.656Z,56.09
2022-07-27T07:58:18.480Z,55.97
2022-07-27T08:00:46.192Z,55.86
2022-07-27T08:03:14.005Z,55.94
2022-07-27T08:05:41.772Z,56.33
2022-07-27T08:08:09.560Z,55.99
2022-07-27T08:10:37.483Z,55.86
2022-07-27T08:13:05.390Z,55.28
2022-07-27T08:15:36.001Z,55.14
2022-07-27T08:18:07.870Z,54.99
2022-07-27T08:20:35.943Z,55.18
2022-07-27T08:23:04.617Z,55.10
2022-07-27T08:25:33.079Z,54.78
2022-07-27T08:28:02.760Z,54.84
2022-07-27T08:30:32.349Z,54.89
2022-07-27T08:33:03.364Z,54.69
2022-07-27T08:35:33.422Z,54.66
2022-07-27T08:38:02.337Z,54.60
2022-07-27T08:40:46.758Z,54.46
2022-07-27T08:43:23.953Z,53.73
2022-07-27T08:45:56.386Z,53.88
2022-07-27T08:48:26.757Z,53.77
2022-07-27T08:50:55.718Z,53.76
2022-07-27T08:53:24.270Z,53.70
2022-07-27T08:55:52.205Z,54.02
2022-07-27T08:58:19.981Z,54.24
2022-07-27T09:00:51.166Z,53.96
2022-07-27T09:03:21.459Z,53.81
2022-07-27T09:05:54.817Z,53.72
2022-07-27T09:08:30.740Z,53.34
2022-07-27T09:11:00.611Z,53.00
2022-07-27T09:13:29.194Z,52.08
2022-07-27T09:16:19.718Z,52.06
2022-07-27T09:18:49.501Z,51.69
2022-07-27T09:21:22.093Z,51.94
2022-07-27T09:23:54.099Z,51.12
2022-07-27T09:26:33.136Z,50.84
2022-07-27T09:29:12.735Z,50.70
2022-07-27T09:31:44.906Z,50.76
2022-07-27T09:34:13.762Z,50.43
2022-07-27T09:36:55.109Z,50.54
2022-07-27T09:39:24.620Z,50.03
2022-07-27T09:41:58.198Z,50.33
2022-07-27T09:44:42.183Z,49.88
2022-07-27T09:47:28.995Z,49.55
2022-07-27T09:49:58.952Z,49.79
2022-07-27T09:52:29.817Z,49.63
2022-07-27T09:55:07.006Z,49.69
2022-07-27T09:57:57.944Z,49.24
2022-07-27T10:00:27.377Z,46.66
2022-07-27T10:02:56.115Z,47.42
2022-07-27T10:05:24.314Z,47.51
2022-07-27T10:07:55.503Z,47.39
2022-07-27T10:10:24.466Z,47.04
2022-07-27T10:12:55.488Z,46.93
2022-07-27T10:15:25.651Z,46.89
2022-07-27T10:18:09.754Z,46.89
2022-07-27T10:20:47.876Z,46.24
2022-07-27T10:23:31.786Z,46.08
2022-07-27T10:26:19.409Z,44.90
2022-07-27T10:29:03.024Z,44.52
2022-07-27T10:31:39.223Z,44.58
2022-07-27T10:34:10.121Z,45.10
2022-07-27T10:36:48.484Z,44.74
2022-07-27T10:39:34.217Z,44.89
2022-07-27T10:42:25.554Z,45.05
2022-07-27T10:45:02.159Z,43.15
2022-07-27T10:47:51.587Z,43.85
2022-07-27T10:50:19.235Z,42.66
2022-07-27T10:52:55.646Z,42.70
2022-07-27T10:55:37.415Z,41.85
2022-07-27T10:58:10.787Z,41.36
2022-07-27T11:00:54.772Z,41.15
2022-07-27T11:03:25.543Z,40.76
2022-07-27T11:06:30.567Z,41.41
2022-07-27T11:09:27.113Z,41.20
2022-07-27T11:11:42.041Z,41.16
2022-07-27T11:14:10.849Z,39.75
2022-07-27T11:16:54.840Z,40.41
2022-07-27T11:19:25.025Z,40.39
2022-07-27T11:21:55.929Z,40.47
2022-07-27T11:24:25.824Z,40.78
2022-07-27T11:26:54.246Z,40.90
2022-07-27T11:29:24.372Z,40.78
2022-07-27T11:31:58.339Z,40.17
2022-07-27T11:34:34.960Z,39.61
2022-07-27T11:37:04.157Z,39.85
2022-07-27T11:42:23.786Z,39.94
2022-07-27T11:44:53.779Z,40.33
2022-07-27T11:47:22.699Z,40.58
2022-07-27T11:49:50.429Z,40.46
2022-07-27T11:52:19.514Z,40.37
2022-07-27T11:54:52.884Z,40.09
2022-07-27T11:57:21.683Z,39.90
2022-07-27T11:59:49.541Z,40.20
2022-07-27T12:02:20.830Z,40.56
2022-07-27T12:04:51.127Z,40.53
2022-07-27T12:07:29.076Z,40.62
2022-07-27T12:09:59.543Z,41.28
2022-07-27T12:12:29.531Z,41.39
2022-07-27T12:15:00.031Z,41.49
2022-07-27T12:17:31.830Z,41.71
2022-07-27T12:20:02.700Z,41.72
2022-07-27T12:22:45.247Z,41.54
2022-07-27T12:25:30.602Z,40.96
2022-07-27T12:28:08.496Z,40.98
2022-07-27T12:30:39.226Z,41.75
2022-07-27T12:33:09.992Z,41.72
2022-07-27T12:35:48.871Z,41.29
2022-07-27T12:38:17.433Z,41.34
2022-07-27T12:40:55.454Z,41.99
2022-07-27T12:43:28.214Z,41.07
2022-07-27T12:45:56.769Z,40.41
2022-07-27T12:48:27.729Z,39.53
2022-07-27T12:51:14.171Z,39.48
2022-07-27T12:53:41.973Z,40.12
2022-07-27T12:56:13.661Z,40.06
2022-07-27T12:58:42.342Z,40.05
2022-07-27T13:01:10.203Z,40.32
2022-07-27T13:03:37.957Z,40.44
2022-07-27T13:06:12.305Z,40.01
2022-07-27T13:08:40.794Z,40.08
2022-07-27T13:11:08.521Z,41.00
2022-07-27T13:13:36.534Z,41.33
2022-07-27T13:16:04.368Z,41.02
2022-07-27T13:18:32.243Z,40.94
2022-07-27T13:20:59.960Z,41.08
2022-07-27T13:23:27.675Z,41.28
2022-07-27T13:25:55.394Z,41.05
2022-07-27T13:28:23.453Z,41.30
2022-07-27T13:30:51.244Z,40.82
2022-07-27T13:33:18.998Z,39.93
2022-07-27T13:35:59.050Z,40.17
2022-07-27T13:38:29.613Z,40.19
2022-07-27T13:40:57.584Z,40.13
2022-07-27T13:43:25.325Z,40.18
2022-07-27T13:45:53.105Z,39.75
2022-07-27T13:48:20.838Z,39.46
2022-07-27T13:50:48.558Z,39.69
2022-07-27T13:53:18.135Z,39.69
2022-07-27T13:55:46.045Z,39.45
2022-07-27T13:58:14.107Z,39.49
2022-07-27T14:00:42.416Z,39.89
2022-07-27T14:03:11.505Z,39.69
2022-07-27T14:05:41.278Z,39.33
2022-07-27T14:08:16.720Z,39.22
2022-07-27T14:10:44.426Z,39.40
2022-07-27T14:13:15.375Z,39.40
2022-07-27T14:15:50.568Z,39.07
2022-07-27T14:18:26.271Z,39.35
2022-07-27T14:20:55.391Z,39.48
2022-07-27T14:23:23.576Z,39.17
2022-07-27T14:25:51.616Z,38.65
2022-07-27T14:28:19.422Z,38.28
2022-07-27T14:30:47.771Z,38.51
2022-07-27T14:33:16.308Z,38.31
2022-07-27T14:35:44.035Z,38.59
2022-07-27T14:38:12.373Z,38.82
2022-07-27T14:40:41.735Z,39.93
2022-07-27T14:43:10.610Z,39.32
2022-07-27T14:45:45.021Z,40.10
2022-07-27T14:48:28.516Z,39.76
2022-07-27T14:51:07.502Z,38.88
2022-07-27T14:53:35.594Z,39.19
2022-07-27T14:56:03.277Z,39.14
2022-07-27T14:58:31.016Z,38.89
2022-07-27T15:00:59.205Z,39.09
2022-07-27T15:03:27.478Z,39.35
2022-07-27T15:05:55.271Z,38.94
2022-07-27T15:08:25.722Z,39.06
2022-07-27T15:10:53.466Z,38.84
2022-07-27T15:13:21.154Z,38.50
2022-07-27T15:15:49.647Z,38.59
2022-07-27T15:18:19.755Z,39.02
2022-07-27T15:20:48.829Z,38.38
2022-07-27T15:23:17.258Z,37.66
2022-07-27T15:25:45.191Z,37.86
2022-07-27T15:28:13.405Z,37.71
2022-07-27T15:30:41.886Z,37.69
2022-07-27T15:33:09.633Z,37.95
2022-07-27T15:35:37.431Z,37.99
2022-07-27T15:38:05.599Z,37.63
2022-07-27T15:40:39.240Z,37.04
2022-07-27T15:43:08.615Z,36.77
2022-07-27T15:45:42.280Z,36.98
2022-07-27T15:48:12.017Z,37.12
2022-07-27T15:50:41.956Z,37.20
2022-07-27T15:53:10.744Z,36.97
2022-07-27T15:55:39.565Z,37.17
2022-07-27T15:58:07.878Z,37.38
2022-07-27T16:00:40.957Z,37.92
2022-07-27T16:03:10.993Z,38.13
2022-07-27T16:05:41.359Z,37.94
2022-07-27T16:08:10.817Z,37.55
2022-07-27T16:10:39.938Z,37.52
2022-07-27T16:13:09.361Z,37.64
2022-07-27T16:15:57.974Z,37.42
2022-07-27T16:18:26.256Z,36.67
2022-07-27T16:20:54.942Z,36.44
2022-07-27T16:23:22.938Z,36.47
2022-07-27T16:26:06.299Z,36.78
2022-07-27T16:28:39.776Z,36.73
2022-07-27T16:31:09.789Z,37.02
2022-07-27T16:33:37.865Z,37.25
2022-07-27T16:36:08.569Z,37.63
2022-07-27T16:38:37.727Z,38.16
2022-07-27T16:41:10.405Z,38.13
2022-07-27T16:43:39.436Z,37.95
2022-07-27T16:46:10.996Z,38.04
2022-07-27T16:48:42.757Z,37.97
2022-07-27T16:51:14.330Z,37.90
2022-07-27T16:53:44.486Z,37.73
2022-07-27T16:56:12.980Z,37.84
2022-07-27T16:58:40.886Z,37.79
2022-07-27T17:01:09.534Z,38.07
2022-07-27T17:03:38.681Z,38.26
2022-07-27T17:06:07.289Z,38.39
2022-07-27T17:08:36.873Z,38.24
2022-07-27T17:11:06.230Z,38.35
2022-07-27T17:13:34.689Z,38.66
2022-07-27T17:16:08.626Z,38.67
2022-07-27T17:18:40.574Z,38.87
2022-07-27T17:21:13.371Z,39.15
2022-07-27T17:23:42.621Z,39.13
2022-07-27T17:26:12.643Z,38.59
2022-07-27T17:28:42.034Z,38.50
2022-07-27T17:31:13.215Z,38.64
2022-07-27T17:33:42.534Z,39.06
2022-07-27T17:36:15.056Z,39.06
2022-07-27T17:38:45.239Z,38.87
2022-07-27T17:41:23.352Z,39.21
2022-07-27T17:43:51.997Z,39.00
2022-07-27T17:46:19.907Z,39.18
2022-07-27T17:48:47.715Z,39.28
2022-07-27T17:51:15.488Z,39.24
2022-07-27T17:53:43.195Z,39.37
2022-07-27T17:56:12.136Z,39.63
2022-07-27T17:58:40.533Z,39.81
2022-07-27T18:01:09.446Z,40.11
2022-07-27T18:03:37.264Z,40.10
2022-07-27T18:06:05.134Z,40.20
2022-07-27T18:08:32.899Z,40.34
2022-07-27T18:11:00.726Z,40.49
2022-07-27T18:13:37.778Z,40.71
2022-07-27T18:16:09.195Z,40.99
2022-07-27T18:18:38.220Z,41.38
2022-07-27T18:21:06.451Z,41.74
2022-07-27T18:23:34.140Z,41.72
2022-07-27T18:26:01.950Z,42.15
2022-07-27T18:28:29.777Z,42.04
2022-07-27T18:30:57.783Z,42.02
2022-07-27T18:33:27.272Z,42.29
2022-07-27T18:36:04.750Z,42.55
2022-07-27T18:38:32.475Z,42.87
2022-07-27T18:41:01.062Z,43.22
2022-07-27T18:43:28.731Z,43.50
2022-07-27T18:45:56.683Z,43.65
2022-07-27T18:48:24.440Z,43.76
2022-07-27T18:50:54.592Z,43.95
2022-07-27T18:53:22.456Z,44.07
2022-07-27T18:55:55.641Z,44.29
2022-07-27T18:58:24.100Z,44.48
2022-07-27T19:00:52.610Z,44.58
2022-07-27T19:03:22.888Z,44.84
2022-07-27T19:05:52.948Z,45.15
2022-07-27T19:08:21.253Z,45.29
2022-07-27T19:10:49.235Z,45.27
2022-07-27T19:13:17.170Z,45.42
2022-07-27T19:15:46.004Z,45.63
2022-07-27T19:18:13.819Z,46.37
2022-07-27T19:20:42.600Z,46.67
2022-07-27T19:23:10.322Z,46.70
2022-07-27T19:25:38.073Z,47.08
2022-07-27T19:28:06.039Z,47.13
2022-07-27T19:30:33.963Z,46.95
2022-07-27T19:33:01.845Z,46.61
2022-07-27T19:35:29.748Z,46.59
2022-07-27T19:37:57.504Z,46.73
2022-07-27T19:43:13.714Z,47.17
2022-07-27T19:45:41.644Z,47.16
2022-07-27T19:48:09.729Z,47.09
2022-07-27T19:50:37.638Z,46.92
2022-07-27T19:53:05.516Z,46.90
2022-07-27T19:55:33.200Z,46.99
2022-07-27T19:58:01.560Z,47.11
2022-07-27T20:00:29.435Z,47.00
2022-07-27T20:02:57.125Z,46.81
2022-07-27T20:05:24.942Z,46.93
2022-07-27T20:07:52.635Z,47.06
2022-07-27T20:10:22.640Z,47.21
2022-07-27T20:12:50.386Z,47.38
2022-07-27T20:15:18.182Z,47.30
2022-07-27T20:17:45.963Z,47.27
2022-07-27T20:20:13.876Z,47.35
2022-07-27T20:22:42.084Z,47.37
2022-07-27T20:25:15.844Z,47.47
2022-07-27T20:27:43.962Z,47.57
2022-07-27T20:30:13.163Z,47.68
2022-07-27T20:32:41.091Z,47.87
2022-07-27T20:35:09.507Z,47.81
2022-07-27T20:37:37.707Z,47.77
2022-07-27T20:40:08.572Z,47.70
2022-07-27T20:42:36.268Z,47.37
2022-07-27T20:45:11.163Z,47.44
2022-07-27T20:47:41.710Z,47.14
2022-07-27T20:50:11.972Z,47.10
2022-07-27T20:52:40.889Z,47.17
2022-07-27T20:55:09.956Z,47.12
2022-07-27T20:57:37.702Z,47.20
2022-07-27T21:00:08.616Z,47.37
2022-07-27T21:02:36.628Z,47.35
2022-07-27T21:05:05.033Z,47.41
2022-07-27T21:07:32.733Z,47.25
2022-07-27T21:10:00.473Z,47.84
2022-07-27T21:12:28.174Z,48.58
2022-07-27T21:14:55.892Z,47.86
2022-07-27T21:17:24.543Z,47.61
2022-07-27T21:19:52.669Z,47.62
2022-07-27T21:22:20.503Z,47.62
2022-07-27T21:24:48.260Z,47.50
2022-07-27T21:27:19.746Z,47.61
2022-07-27T21:29:49.587Z,47.65
2022-07-27T21:32:18.245Z,47.77
2022-07-27T21:34:45.977Z,47.85
2022-07-27T21:37:13.762Z,47.90
2022-07-27T21:39:41.498Z,48.32
2022-07-27T21:42:09.271Z,48.58
2022-07-27T21:44:38.490Z,48.59
2022-07-27T21:47:13.499Z,48.83
2022-07-27T21:49:42.078Z,48.68
2022-07-27T21:52:09.827Z,48.81
2022-07-27T21:54:37.513Z,48.90
2022-07-27T21:57:05.299Z,49.03
2022-07-27T21:59:32.989Z,49.03
2022-07-27T22:02:01.991Z,49.15
2022-07-27T22:04:29.799Z,49.39
2022-07-27T22:06:57.967Z,49.50
2022-07-27T22:09:25.754Z,49.86
2022-07-27T22:11:53.448Z,49.92
2022-07-27T22:14:24.286Z,50.08
2022-07-27T22:16:54.033Z,50.11
2022-07-27T22:19:21.839Z,50.12
2022-07-27T22:21:49.594Z,50.36
2022-07-27T22:24:17.649Z,50.67
2022-07-27T22:26:45.493Z,50.97
2022-07-27T22:29:13.356Z,51.03
2022-07-27T22:31:41.064Z,51.27
2022-07-27T22:34:08.955Z,51.47
2022-07-27T22:36:36.671Z,51.75
2022-07-27T22:39:04.369Z,51.82
2022-07-27T22:41:32.041Z,51.81
2022-07-27T22:44:00.333Z,51.99
2022-07-27T22:46:31.052Z,51.93
2022-07-27T22:48:58.955Z,52.01
2022-07-27T22:51:26.758Z,52.01
2022-07-27T22:54:14.678Z,52.05
2022-07-27T22:56:42.706Z,51.83
2022-07-27T22:59:10.378Z,51.37
2022-07-27T23:01:45.899Z,51.19
2022-07-27T23:04:16.294Z,51.26
2022-07-27T23:06:44.599Z,51.32
2022-07-27T23:09:12.400Z,51.21
2022-07-27T23:11:40.055Z,51.22
2022-07-27T23:14:08.523Z,51.14
2022-07-27T23:16:36.575Z,51.37
2022-07-27T23:19:04.801Z,51.31
2022-07-27T23:21:32.507Z,51.39
2022-07-27T23:24:00.210Z,51.65
2022-07-27T23:26:28.557Z,51.65
2022-07-27T23:28:56.399Z,51.61
2022-07-27T23:31:24.435Z,51.52
2022-07-27T23:33:52.532Z,51.40
2022-07-27T23:36:20.200Z,51.43
2022-07-27T23:38:47.887Z,51.40
2022-07-27T23:41:17.150Z,51.43
2022-07-27T23:43:45.004Z,51.40
2022-07-27T23:46:12.803Z,51.47
2022-07-27T23:48:40.542Z,51.49
2022-07-27T23:51:09.989Z,51.42
2022-07-27T23:53:37.871Z,51.38
2022-07-27T23:56:05.764Z,51.44
2022-07-27T23:58:33.432Z,51.46
